Terminal Aerodrome Forecast
Issued by NWS

Home | Current Version | Previous Version | Graphics & Text | Print | Product List | Glossary On
Versions: 1 2 3 4 5 6 7 8 9 10 11 12 13 14 15 16 17 18 19 20 21 22 23 24
000
FTUS43 KLOT 131737
TAFGYY
TAF
KGYY 131737Z 1318/1418 20014G22KT P6SM SCT030 BKN080 OVC120
     FM132000 23014G21KT 6SM -SN SCT030 OVC080
      TEMPO 1320/1322 3SM -SN BKN015
     FM132300 31018G29KT P6SM -SN OVC018
     FM140400 35016G27KT 6SM -SHSN OVC020
      TEMPO 1404/1408 02012G18KT 1 1/2SM -SN BKN015
     FM141100 32011KT P6SM FEW025 SCT250=

USA.gov is the U.S. government's official web portal to all federal, state and local government web resources and services.